Time;durP1;ratioP1;P1;durP2;ratioP2;P2;SDS_P1;SDS_P2;PMS_P1;PMS_P2;Temp;Humidity;BMP_temperature;BMP_pressure;BME280_temperature;BME280_humidity;BME280_pressure;Samples;Min_cycle;Max_cycle;Signal;HPM_P1;HPM_P2
2023/07/29 00:00:37;;;;;;;1999.90;999.90;;;;;;;16.75;100.00;93926.19;5024192;28;20237;-59
2023/07/29 00:03:02;;;;;;;1999.90;999.90;;;;;;;16.77;100.00;93915.41;5024305;28;20261;-59
2023/07/29 00:05:27;;;;;;;1999.90;999.90;;;;;;;16.81;100.00;93927.00;5023847;28;20199;-60
2023/07/29 00:07:53;;;;;;;1999.90;999.90;;;;;;;16.79;100.00;93910.19;5023810;28;20271;-59
2023/07/29 00:10:18;;;;;;;1999.90;999.90;;;;;;;16.77;100.00;93907.16;5024089;28;20218;-60
2023/07/29 00:12:43;;;;;;;1999.90;999.90;;;;;;;16.74;100.00;93903.34;5024231;28;20195;-59
2023/07/29 00:15:09;;;;;;;1999.90;999.90;;;;;;;16.71;100.00;93915.34;5024210;28;20187;-59
2023/07/29 00:17:34;;;;;;;1999.90;999.90;;;;;;;16.68;100.00;93921.06;5023841;28;20187;-59
2023/07/29 00:20:00;;;;;;;1999.90;999.90;;;;;;;16.66;100.00;93918.78;5023692;28;20202;-60
2023/07/29 00:22:25;;;;;;;1999.90;999.90;;;;;;;16.65;100.00;93916.50;5024122;28;20211;-59
2023/07/29 00:24:57;;;;;;;1999.90;999.90;;;;;;;16.59;100.00;93916.41;5023642;28;20195;-59
2023/07/29 00:27:23;;;;;;;1999.90;999.90;;;;;;;16.58;100.00;93909.38;5023528;28;20223;-60
2023/07/29 00:29:48;;;;;;;1999.90;999.90;;;;;;;16.57;100.00;93901.59;5023724;28;20183;-59
2023/07/29 00:32:14;;;;;;;1999.90;999.90;;;;;;;16.54;100.00;93906.06;5024172;28;20195;-60
2023/07/29 00:34:39;;;;;;;1999.90;999.90;;;;;;;16.53;100.00;93903.78;5024341;28;20271;-59
2023/07/29 00:37:05;;;;;;;1999.90;999.90;;;;;;;16.50;100.00;93899.22;5027760;28;20195;-60
2023/07/29 00:39:31;;;;;;;1999.90;999.90;;;;;;;16.48;100.00;93898.91;5027611;28;20195;-60
2023/07/29 00:41:57;;;;;;;1999.90;999.90;;;;;;;16.45;100.00;93897.88;5027204;28;20210;-59
2023/07/29 00:44:22;;;;;;;1999.90;999.90;;;;;;;16.45;100.00;93897.88;5027239;28;20190;-60
2023/07/29 00:46:50;;;;;;;1999.90;999.90;;;;;;;16.51;100.00;93900.72;5027320;28;20191;-59
2023/07/29 00:49:15;;;;;;;1999.90;999.90;;;;;;;16.53;100.00;93899.00;5027229;28;20187;-60
2023/07/29 00:51:41;;;;;;;1999.90;999.90;;;;;;;16.59;100.00;93897.09;5027053;28;20217;-61
2023/07/29 00:54:06;;;;;;;1999.90;999.90;;;;;;;16.63;100.00;93885.88;5027835;28;20195;-61
2023/07/29 00:56:32;;;;;;;1999.90;999.90;;;;;;;16.61;100.00;93888.38;5026731;28;20266;-61
2023/07/29 00:59:01;;;;;;;1999.90;999.90;;;;;;;16.66;100.00;93884.91;5026991;28;20175;-60
2023/07/29 01:01:27;;;;;;;1999.90;999.90;;;;;;;16.66;100.00;93880.19;5027330;28;20210;-63
2023/07/29 01:03:53;;;;;;;1999.90;999.90;;;;;;;16.68;100.00;93882.47;5027254;28;20238;-60
2023/07/29 01:06:53;;;;;;;1999.90;999.90;;;;;;;16.72;100.00;93883.03;5026911;28;20199;-61
2023/07/29 01:09:58;;;;;;;1999.90;999.90;;;;;;;16.72;100.00;93883.03;5027072;28;20191;-60
2023/07/29 01:12:42;;;;;;;1999.90;999.90;;;;;;;16.70;100.00;93888.25;4951325;29;20216;-61
2023/07/29 01:15:16;;;;;;;1999.90;999.90;;;;;;;16.65;100.00;93888.94;4951614;29;20201;-61
2023/07/29 01:17:46;;;;;;;1999.90;999.90;;;;;;;16.64;100.00;93887.41;4999324;28;20209;-61
2023/07/29 01:20:15;;;;;;;1999.90;999.90;;;;;;;16.63;100.00;93877.59;5026612;28;20209;-61
2023/07/29 01:22:41;;;;;;;1999.90;999.90;;;;;;;16.62;100.00;93884.38;5026315;28;20248;-61
2023/07/29 01:25:07;;;;;;;1999.90;999.90;;;;;;;16.60;100.00;93870.31;5026729;28;20195;-60
2023/07/29 01:27:33;;;;;;;1999.90;999.90;;;;;;;16.55;100.00;93873.72;5026561;28;20229;-61
2023/07/29 01:29:58;;;;;;;1999.90;999.90;;;;;;;16.49;100.00;93886.69;5026550;28;20270;-61
2023/07/29 01:32:59;;;;;;;1999.90;999.90;;;;;;;16.42;100.00;93894.09;5026595;28;20187;-61
2023/07/29 01:35:31;;;;;;;1999.90;999.90;;;;;;;16.37;100.00;93880.97;5026305;28;20222;-61
2023/07/29 01:38:06;;;;;;;1999.90;999.90;;;;;;;16.33;100.00;93872.13;5026593;28;20195;-61
2023/07/29 01:40:33;;;;;;;1999.90;999.90;;;;;;;16.32;100.00;93878.13;5026224;28;20277;-61
2023/07/29 01:42:59;;;;;;;1999.90;999.90;;;;;;;16.31;100.00;93877.34;5026250;28;20195;-61
2023/07/29 01:45:28;;;;;;;1999.90;999.90;;;;;;;16.26;100.00;93882.78;5025880;28;20195;-61
2023/07/29 01:47:53;;;;;;;1999.90;999.90;;;;;;;16.25;100.00;93879.25;5026296;28;20191;-60
2023/07/29 01:50:18;;;;;;;1999.90;999.90;;;;;;;16.24;100.00;93882.47;5026632;28;20267;-60
2023/07/29 01:52:44;;;;;;;1999.90;999.90;;;;;;;16.20;100.00;93877.19;5026159;28;20194;-61
2023/07/29 01:55:09;;;;;;;1999.90;999.90;;;;;;;16.19;100.00;93881.19;5025820;28;20195;-61
2023/07/29 01:57:34;;;;;;;1999.90;999.90;;;;;;;16.15;100.00;93891.63;5026385;28;20286;-60
2023/07/29 02:00:00;;;;;;;1999.90;999.90;;;;;;;16.14;100.00;93884.56;5026184;28;20195;-61
2023/07/29 02:02:25;;;;;;;1999.90;999.90;;;;;;;16.17;100.00;93885.63;5026262;28;20211;-61
2023/07/29 02:04:52;;;;;;;1999.90;999.90;;;;;;;16.14;100.00;93887.34;5025732;28;20191;-60
2023/07/29 02:07:19;;;;;;;1999.90;999.90;;;;;;;16.13;100.00;93887.81;5025791;28;20195;-61
2023/07/29 02:09:44;;;;;;;1999.90;999.90;;;;;;;16.14;100.00;93881.81;5025680;28;20225;-61
2023/07/29 02:12:10;;;;;;;1999.90;999.90;;;;;;;16.13;100.00;93885.06;5025790;28;20191;-61
2023/07/29 02:14:35;;;;;;;1999.90;999.90;;;;;;;16.11;100.00;93885.53;5025748;28;20229;-61
2023/07/29 02:17:01;;;;;;;1999.90;999.90;;;;;;;16.10;100.00;93873.00;5025677;28;20187;-61
2023/07/29 02:19:26;;;;;;;1999.90;999.90;;;;;;;16.06;100.00;93872.44;5025910;28;20222;-60
2023/07/29 02:21:51;;;;;;;1999.90;999.90;;;;;;;16.01;100.00;93875.84;5025834;28;20203;-60
2023/07/29 02:24:17;;;;;;;1999.90;999.90;;;;;;;16.01;100.00;93881.38;5025630;28;20198;-61
2023/07/29 02:26:42;;;;;;;1999.90;999.90;;;;;;;16.00;100.00;93868.81;5025215;28;20226;-61
2023/07/29 02:29:07;;;;;;;1999.90;999.90;;;;;;;15.98;100.00;93876.03;5025549;28;20214;-61
2023/07/29 02:31:34;;;;;;;1999.90;999.90;;;;;;;15.93;100.00;93869.22;5025488;28;20266;-61
2023/07/29 02:34:00;;;;;;;1999.90;999.90;;;;;;;15.93;100.00;93884.97;5025116;28;20281;-60
2023/07/29 02:36:25;;;;;;;1999.90;999.90;;;;;;;15.94;100.00;93880.97;5025063;28;20202;-61
2023/07/29 02:38:51;;;;;;;1999.90;999.90;;;;;;;15.92;100.00;93888.97;5025223;28;20213;-61
2023/07/29 02:41:16;;;;;;;1999.90;999.90;;;;;;;15.91;100.00;93898.44;5024940;28;20207;-61
2023/07/29 02:43:48;;;;;;;1999.90;999.90;;;;;;;15.89;100.00;93896.16;5025193;28;20282;-61
2023/07/29 02:46:13;;;;;;;1999.90;999.90;;;;;;;15.90;100.00;93902.44;5025077;28;20195;-61
2023/07/29 02:48:39;;;;;;;1999.90;999.90;;;;;;;15.90;100.00;93905.19;5025222;28;20209;-61
2023/07/29 02:51:04;;;;;;;1999.90;999.90;;;;;;;15.90;100.00;93902.44;5024849;28;20268;-61
2023/07/29 02:53:29;;;;;;;1999.90;999.90;;;;;;;15.89;100.00;93890.66;5025119;28;20191;-61
2023/07/29 02:55:55;;;;;;;1999.90;999.90;;;;;;;15.83;100.00;93898.06;5024708;28;20266;-61
2023/07/29 02:58:20;;;;;;;1999.90;999.90;;;;;;;15.83;100.00;93900.03;5024459;28;20171;-61
2023/07/29 03:00:48;;;;;;;1999.90;999.90;;;;;;;15.81;100.00;93895.00;5025076;28;20215;-61
2023/07/29 03:03:13;;;;;;;1999.90;999.90;;;;;;;15.78;100.00;93890.44;5025247;28;20195;-61
2023/07/29 03:05:39;;;;;;;1999.90;999.90;;;;;;;15.74;100.00;93889.88;5024471;28;20265;-61
2023/07/29 03:08:04;;;;;;;1999.90;999.90;;;;;;;15.72;100.00;93892.34;5024609;28;20187;-60
2023/07/29 03:10:30;;;;;;;1999.90;999.90;;;;;;;15.74;100.00;93878.84;5024550;28;20199;-61
2023/07/29 03:12:55;;;;;;;1999.90;999.90;;;;;;;15.73;100.00;93890.34;5024624;28;20191;-61
2023/07/29 03:15:25;;;;;;;1999.90;999.90;;;;;;;15.73;100.00;93884.84;5024323;28;20191;-62
2023/07/29 03:17:50;;;;;;;1999.90;999.90;;;;;;;15.72;100.00;93877.81;5024561;28;20215;-61
2023/07/29 03:20:17;;;;;;;1999.90;999.90;;;;;;;15.74;100.00;93878.84;5024622;28;20199;-61
2023/07/29 03:22:43;;;;;;;1999.90;999.90;;;;;;;15.72;100.00;93877.81;5024441;28;20279;-61
2023/07/29 03:25:08;;;;;;;1999.90;999.90;;;;;;;15.72;100.00;93895.09;5024245;28;20245;-61
2023/07/29 03:27:36;;;;;;;1999.90;999.90;;;;;;;15.72;100.00;93892.34;5024336;28;20168;-61
2023/07/29 03:30:04;;;;;;;1999.90;999.90;;;;;;;15.69;100.00;93893.28;5024914;28;20217;-61
2023/07/29 03:32:29;;;;;;;1999.90;999.90;;;;;;;15.69;100.00;93876.78;5024649;28;20190;-62
2023/07/29 03:34:55;;;;;;;1999.90;999.90;;;;;;;15.72;100.00;93872.31;5024148;28;20191;-60
2023/07/29 03:37:21;;;;;;;1999.90;999.90;;;;;;;15.68;100.00;93864.25;5024203;28;20218;-61
2023/07/29 03:39:46;;;;;;;1999.90;999.90;;;;;;;15.71;100.00;93874.31;5024015;28;20195;-61
2023/07/29 03:42:12;;;;;;;1999.90;999.90;;;;;;;15.72;100.00;93869.56;5024321;28;20207;-61
2023/07/29 03:44:39;;;;;;;1999.90;999.90;;;;;;;15.73;100.00;93871.06;5024036;28;20195;-61
2023/07/29 03:47:05;;;;;;;1999.90;999.90;;;;;;;15.75;100.00;93871.38;5024114;28;20183;-60
2023/07/29 03:49:30;;;;;;;1999.90;999.90;;;;;;;15.82;100.00;93874.53;5024473;28;20186;-61
2023/07/29 03:51:56;;;;;;;1999.90;999.90;;;;;;;15.85;100.00;93873.56;5024593;28;20205;-61
2023/07/29 03:54:21;;;;;;;1999.90;999.90;;;;;;;15.90;100.00;93878.41;5024146;28;20187;-61
2023/07/29 03:56:46;;;;;;;1999.90;999.90;;;;;;;16.01;100.00;93875.09;5023690;28;20175;-61
2023/07/29 03:59:12;;;;;;;1999.90;999.90;;;;;;;16.01;100.00;93873.09;5024345;28;20227;-60
2023/07/29 04:01:37;;;;;;;1999.90;999.90;;;;;;;16.10;100.00;93875.75;5024222;28;20207;-60
2023/07/29 04:04:02;;;;;;;1999.90;999.90;;;;;;;16.20;100.00;93871.66;5023927;28;20202;-61
2023/07/29 04:06:28;;;;;;;1999.90;999.90;;;;;;;16.29;100.00;93874.31;5023837;28;20237;-60
2023/07/29 04:08:53;;;;;;;1999.90;999.90;;;;;;;16.29;100.00;93879.81;5023843;28;20194;-60
2023/07/29 04:11:19;;;;;;;1999.90;999.90;;;;;;;16.32;100.00;93870.59;5027326;28;20217;-60
2023/07/29 04:13:44;;;;;;;1999.90;999.90;;;;;;;16.32;100.00;93873.34;5027800;28;20203;-60
2023/07/29 04:16:09;;;;;;;1999.90;999.90;;;;;;;16.30;100.00;93864.81;5027832;28;20223;-60
2023/07/29 04:18:35;;;;;;;1999.90;999.90;;;;;;;16.31;100.00;93865.56;5027641;28;20199;-60
2023/07/29 04:21:00;;;;;;;1999.90;999.90;;;;;;;16.29;100.00;93863.28;5027856;28;20275;-60
2023/07/29 04:23:26;;;;;;;1999.90;999.90;;;;;;;16.33;100.00;93858.34;5028015;28;20245;-61
2023/07/29 04:25:51;;;;;;;1999.90;999.90;;;;;;;16.40;100.00;93846.94;5027830;28;20194;-61
2023/07/29 04:28:17;;;;;;;1999.90;999.90;;;;;;;16.42;100.00;93851.25;5028302;28;20179;-60
2023/07/29 04:30:42;;;;;;;1999.90;999.90;;;;;;;16.46;100.00;93844.28;5028138;28;20195;-61
2023/07/29 04:33:07;;;;;;;1999.90;999.90;;;;;;;16.49;100.00;93856.38;5027475;28;20195;-60
2023/07/29 04:35:33;;;;;;;1999.90;999.90;;;;;;;16.58;100.00;93843.22;5027270;28;20217;-60
2023/07/29 04:37:58;;;;;;;1999.90;999.90;;;;;;;16.75;100.00;93832.44;5027364;28;20258;-59
2023/07/29 04:40:24;;;;;;;1999.90;999.90;;;;;;;17.18;100.00;93837.00;5027377;28;20203;-60
2023/07/29 04:42:51;;;;;;;1999.90;999.90;;;;;;;17.46;100.00;93835.34;5027171;28;20211;-60
2023/07/29 04:45:16;;;;;;;1999.90;999.90;;;;;;;17.67;100.00;93825.78;5027276;28;20262;-59
2023/07/29 04:47:41;;;;;;;1999.90;999.90;;;;;;;17.77;100.00;93838.19;5027317;28;20202;-60
2023/07/29 04:50:07;;;;;;;1999.90;999.90;;;;;;;18.26;100.00;93829.59;5027276;28;20242;-60
2023/07/29 04:52:33;;;;;;;1999.90;999.90;;;;;;;18.75;100.00;93812.59;5027248;28;20198;-60
2023/07/29 04:54:58;;;;;;;1999.90;999.90;;;;;;;18.83;100.00;93827.50;5027606;28;20195;-59
2023/07/29 04:57:23;;;;;;;1999.90;999.90;;;;;;;19.31;100.00;93833.81;5027753;28;20191;-60
2023/07/29 04:59:49;;;;;;;1999.90;999.90;;;;;;;19.69;100.00;93860.88;5026974;28;20202;-59
2023/07/29 05:02:15;;;;;;;1999.90;999.90;;;;;;;20.23;100.00;93850.44;5027323;28;20239;-61
2023/07/29 05:04:40;;;;;;;1999.90;999.90;;;;;;;20.76;100.00;93739.19;5027372;28;20230;-63
2023/07/29 05:07:06;;;;;;;1999.90;999.90;;;;;;;21.22;100.00;93719.84;5027107;28;20207;-60
2023/07/29 05:09:31;;;;;;;1999.90;999.90;;;;;;;21.51;100.00;93922.75;5027127;28;20213;-62
2023/07/29 05:11:56;;;;;;;1999.90;999.90;;;;;;;22.08;100.00;94159.22;5026845;28;20199;-61
2023/07/29 05:14:21;;;;;;;1999.90;999.90;;;;;;;22.28;100.00;94384.31;5026812;28;20191;-62
2023/07/29 05:16:47;;;;;;;1999.90;999.90;;;;;;;21.89;100.00;94474.47;5026859;28;20245;-60
2023/07/29 05:19:13;;;;;;;1999.90;999.90;;;;;;;21.64;100.00;94453.81;5026796;28;20195;-60
2023/07/29 05:21:39;;;;;;;1999.90;999.90;;;;;;;21.83;100.00;94427.16;5025975;28;20214;-59
2023/07/29 05:24:04;;;;;;;1999.90;999.90;;;;;;;21.81;100.00;94474.16;5027043;28;20191;-59
2023/07/29 05:26:30;;;;;;;1999.90;999.90;;;;;;;21.49;100.00;94472.69;5027233;28;20302;-59
2023/07/29 05:28:55;;;;;;;1999.90;999.90;;;;;;;21.45;100.00;94455.50;5026643;28;20274;-59
2023/07/29 05:31:21;;;;;;;1999.90;999.90;;;;;;;21.47;100.00;94439.09;5026798;28;20172;-60
2023/07/29 05:33:46;;;;;;;1999.90;999.90;;;;;;;21.63;100.00;94434.84;5026914;28;20921;-60
2023/07/29 05:36:12;;;;;;;1999.90;999.90;;;;;;;21.89;100.00;94450.19;5026880;28;20195;-62
2023/07/29 05:38:37;;;;;;;1999.90;999.90;;;;;;;21.78;100.00;94469.59;5026164;28;20225;-61
2023/07/29 05:41:02;;;;;;;1999.90;999.90;;;;;;;21.66;100.00;94462.44;5026393;28;20208;-61
2023/07/29 05:43:28;;;;;;;1999.90;999.90;;;;;;;21.55;100.00;94440.16;5026226;28;20207;-60
2023/07/29 05:45:53;;;;;;;1999.90;999.90;;;;;;;21.54;100.00;94421.97;5026300;28;20199;-60
2023/07/29 05:48:22;;;;;;;1999.90;999.90;;;;;;;21.38;100.00;94411.50;5026309;28;20210;-61
2023/07/29 05:50:47;;;;;;;1999.90;999.90;;;;;;;21.47;100.00;94375.19;5026009;28;20222;-60
2023/07/29 05:53:14;;;;;;;1999.90;999.90;;;;;;;21.58;100.00;94369.66;5025985;28;20198;-59
2023/07/29 05:55:39;;;;;;;1999.90;999.90;;;;;;;21.50;100.00;94365.84;5026097;28;20198;-59
2023/07/29 05:58:04;;;;;;;1999.90;999.90;;;;;;;21.32;100.00;94349.59;5025918;28;20195;-59
2023/07/29 06:00:30;;;;;;;1999.90;999.90;;;;;;;21.05;100.00;94327.97;5025577;28;20191;-60
2023/07/29 06:02:55;;;;;;;1999.90;999.90;;;;;;;20.85;100.00;94305.91;5025945;28;20207;-58
2023/07/29 06:05:20;;;;;;;1999.90;999.90;;;;;;;20.64;100.00;94285.06;5025995;28;20210;-61
2023/07/29 06:07:47;;;;;;;1999.90;999.90;;;;;;;20.37;100.00;94187.81;5026274;28;20195;-59
2023/07/29 06:10:17;;;;;;;1999.90;999.90;;;;;;;19.81;100.00;94003.75;5026373;28;20199;-56
2023/07/29 06:12:43;;;;;;;1999.90;999.90;;;;;;;19.11;100.00;93782.13;5025896;28;20203;-51
2023/07/29 06:15:08;;;;;;;1999.90;999.90;;;;;;;18.48;100.00;93752.38;5025588;28;20227;-52
2023/07/29 06:17:34;;;;;;;1999.90;999.90;;;;;;;18.08;100.00;93808.59;5025521;28;20220;-57
2023/07/29 06:19:59;;;;;;;1999.90;999.90;;;;;;;17.90;100.00;93846.84;5025835;28;20226;-59
2023/07/29 06:22:24;;;;;;;1999.90;999.90;;;;;;;17.86;100.00;93851.84;5025608;28;20203;-59
2023/07/29 06:24:50;;;;;;;1999.90;999.90;;;;;;;17.79;100.00;93846.75;5025796;28;20215;-58
2023/07/29 06:27:15;;;;;;;1999.90;999.90;;;;;;;17.75;100.00;93865.53;5025571;28;20195;-59
2023/07/29 06:29:40;;;;;;;1999.90;999.90;;;;;;;17.78;100.00;93845.97;5024898;28;20192;-59
2023/07/29 06:32:06;;;;;;;1999.90;999.90;;;;;;;17.89;100.00;93837.06;5024934;28;20238;-60
2023/07/29 06:34:31;;;;;;;1999.90;999.90;;;;;;;18.06;100.00;93835.22;5025572;28;20203;-60
2023/07/29 06:36:57;;;;;;;1999.90;999.90;;;;;;;18.19;100.00;93910.19;5025570;28;20222;-60
2023/07/29 06:39:22;;;;;;;1999.90;999.90;;;;;;;18.27;100.00;93917.56;5025485;28;20270;-60
2023/07/29 06:41:48;;;;;;;1999.90;999.90;;;;;;;18.35;100.00;93915.88;5025400;28;20249;-61
2023/07/29 06:44:13;;;;;;;1999.90;999.90;;;;;;;18.38;100.00;93963.91;5025028;28;20199;-59
2023/07/29 06:46:39;;;;;;;1999.90;999.90;;;;;;;18.36;100.00;93955.38;5025222;28;20207;-60
2023/07/29 06:49:05;;;;;;;1999.90;999.90;;;;;;;18.29;100.00;93964.78;5024958;28;20199;-59
2023/07/29 06:51:34;;;;;;;1999.90;999.90;;;;;;;18.21;100.00;93987.84;5025106;28;20226;-59
2023/07/29 06:53:59;;;;;;;1999.90;999.90;;;;;;;18.17;100.00;93999.09;5024601;28;20202;-59
2023/07/29 06:56:24;;;;;;;1999.90;999.90;;;;;;;18.11;100.00;94000.28;5025177;28;20191;-58
2023/07/29 06:58:50;;;;;;;1999.90;999.90;;;;;;;18.02;100.00;94003.19;5024806;28;20194;-50
2023/07/29 07:01:15;;;;;;;1999.90;999.90;;;;;;;17.97;100.00;93999.13;5024534;28;20230;-55
2023/07/29 07:03:40;;;;;;;1999.90;999.90;;;;;;;17.95;100.00;94020.22;5024432;28;20214;-58
2023/07/29 07:06:06;;;;;;;1999.90;999.90;;;;;;;17.88;100.00;93998.53;5024458;28;20266;-58
2023/07/29 07:08:31;;;;;;;1999.90;999.90;;;;;;;17.86;100.00;94009.28;5025137;28;20203;-58
2023/07/29 07:10:56;;;;;;;1999.90;999.90;;;;;;;17.88;100.00;93995.75;5024859;28;20286;-58
2023/07/29 07:13:22;;;;;;;1999.90;999.90;;;;;;;17.85;100.00;93949.75;5024389;28;20202;-58
2023/07/29 07:15:47;;;;;;;1999.90;999.90;;;;;;;17.89;100.00;93944.78;5024961;28;20278;-59
2023/07/29 07:18:13;;;;;;;1999.90;999.90;;;;;;;17.89;100.00;93953.06;5024629;28;20360;-59
2023/07/29 07:20:38;;;;;;;1999.90;999.90;;;;;;;17.94;100.00;93957.88;5024443;28;20211;-59
2023/07/29 07:23:05;;;;;;;1999.90;999.90;;;;;;;17.98;100.00;93958.44;5024621;28;20221;-59
2023/07/29 07:25:31;;;;;;;1999.90;999.90;;;;;;;18.05;100.00;93955.25;5024884;28;20203;-60
2023/07/29 07:27:56;;;;;;;1999.90;999.90;;;;;;;18.08;100.00;93946.00;5024692;28;20206;-56
2023/07/29 07:30:21;;;;;;;1999.90;999.90;;;;;;;18.17;100.00;93948.63;5024547;28;20202;-54
2023/07/29 07:32:47;;;;;;;1999.90;999.90;;;;;;;18.15;100.00;93940.03;5024168;28;20222;-57
2023/07/29 07:35:12;;;;;;;1999.90;999.90;;;;;;;18.15;100.00;93935.28;5024300;28;20264;-58
2023/07/29 07:37:38;;;;;;;1999.90;999.90;;;;;;;17.81;100.00;93927.88;5024164;28;20227;-51
2023/07/29 07:40:03;;;;;;;1999.90;999.90;;;;;;;17.78;100.00;93922.56;5024548;28;20233;-54
2023/07/29 07:42:29;;;;;;;1999.90;999.90;;;;;;;18.02;100.00;93917.53;5023903;28;20218;-59
2023/07/29 07:44:54;;;;;;;1999.90;999.90;;;;;;;18.14;100.00;93913.66;5024304;28;20195;-53
2023/07/29 07:47:19;;;;;;;1999.90;999.90;;;;;;;18.16;100.00;93908.38;5023992;28;20199;-54
2023/07/29 07:49:45;;;;;;;1999.90;999.90;;;;;;;18.16;100.00;93886.28;5024266;28;20198;-56
2023/07/29 07:52:10;;;;;;;1999.90;999.90;;;;;;;18.15;100.00;93891.06;5024054;28;20226;-57
2023/07/29 07:54:35;;;;;;;1999.90;999.90;;;;;;;18.15;100.00;93868.19;5023980;28;20202;-56
2023/07/29 07:57:01;;;;;;;1999.90;999.90;;;;;;;18.17;100.00;93860.91;5024095;28;20278;-57
2023/07/29 07:59:26;;;;;;;1999.90;999.90;;;;;;;18.16;100.00;93869.69;5024182;28;20195;-56
2023/07/29 08:01:52;;;;;;;1999.90;999.90;;;;;;;18.29;100.00;93875.59;5023886;28;20241;-64
2023/07/29 08:04:17;;;;;;;1999.90;999.90;;;;;;;18.39;100.00;93876.97;5023820;28;20202;-57
2023/07/29 08:06:43;;;;;;;1999.90;999.90;;;;;;;18.50;100.00;93872.28;5024072;28;20179;-57
2023/07/29 08:09:08;;;;;;;1999.90;999.90;;;;;;;18.64;100.00;93867.84;5023914;28;20222;-58
2023/07/29 08:11:33;;;;;;;1999.90;999.90;;;;;;;18.65;100.00;93869.38;5023623;28;20205;-55
2023/07/29 08:13:59;;;;;;;1999.90;999.90;;;;;;;18.80;100.00;93870.00;5023964;28;20206;-57
2023/07/29 08:16:24;;;;;;;1999.90;999.90;;;;;;;18.84;100.00;93873.28;5023705;28;20313;-55
2023/07/29 08:18:49;;;;;;;1999.90;999.90;;;;;;;19.16;100.00;93867.19;5023730;28;20203;-57
2023/07/29 08:21:15;;;;;;;1999.90;999.90;;;;;;;19.29;100.00;93864.00;5023611;28;20253;-56
2023/07/29 08:23:40;;;;;;;1999.90;999.90;;;;;;;19.52;100.00;93862.81;5023723;28;20207;-54
2023/07/29 08:26:06;;;;;;;1999.90;999.90;;;;;;;19.69;100.00;93855.34;5023785;28;20198;-55
2023/07/29 08:28:33;;;;;;;1999.90;999.90;;;;;;;19.72;100.00;93854.34;5023852;28;20238;-55
2023/07/29 08:30:59;;;;;;;1999.90;999.90;;;;;;;20.03;100.00;93836.78;5023743;28;20313;-57
2023/07/29 08:33:24;;;;;;;1999.90;999.90;;;;;;;20.21;100.00;93834.28;5023393;28;20290;-56
2023/07/29 08:35:50;;;;;;;1999.90;999.90;;;;;;;20.39;100.00;93825.47;5023473;28;20254;-57
2023/07/29 08:38:15;;;;;;;1999.90;999.90;;;;;;;20.64;100.00;93813.34;5024168;28;20215;-57
2023/07/29 08:40:48;;;;;;;1999.90;999.90;;;;;;;20.72;100.00;93833.03;5023991;28;20195;-57
2023/07/29 08:43:18;;;;;;;1999.90;999.90;;;;;;;20.65;100.00;93842.63;5023500;28;20220;-58
2023/07/29 08:45:44;;;;;;;1999.90;999.90;;;;;;;20.68;100.00;93847.16;5023533;28;20207;-57
2023/07/29 08:48:11;;;;;;;1999.90;999.90;;;;;;;20.64;100.00;93857.75;5023484;28;20206;-57
2023/07/29 08:50:37;;;;;;;1999.90;999.90;;;;;;;20.69;100.00;93865.31;5023380;28;20195;-58
2023/07/29 08:53:06;;;;;;;1999.90;999.90;;;;;;;20.58;100.00;93845.16;5023598;28;20203;-57
2023/07/29 08:55:32;;;;;;;1999.90;999.90;;;;;;;20.63;100.00;93828.50;5023753;28;20215;-57
2023/07/29 08:57:59;;;;;;;1999.90;999.90;;;;;;;20.70;100.00;93816.13;5026971;28;20246;-57
2023/07/29 09:00:26;;;;;;;1999.90;999.90;;;;;;;20.64;100.00;93795.94;5027528;28;20210;-58
2023/07/29 09:02:51;;;;;;;1999.90;999.90;;;;;;;20.72;100.00;93763.66;5026844;28;20211;-58
2023/07/29 09:05:16;;;;;;;1999.90;999.90;;;;;;;20.97;100.00;93730.03;5027191;28;20230;-58
2023/07/29 09:07:44;;;;;;;1999.90;999.90;;;;;;;21.06;100.00;93702.00;5027030;28;20195;-58
2023/07/29 09:10:12;;;;;;;1999.90;999.90;;;;;;;21.46;100.00;93672.72;5027185;28;20199;-58
2023/07/29 09:12:38;;;;;;;1999.90;999.90;;;;;;;21.78;100.00;93663.41;5026889;28;20223;-58
2023/07/29 09:15:04;;;;;;;1999.90;999.90;;;;;;;22.07;100.00;93645.97;5027156;28;20202;-58
2023/07/29 09:17:32;;;;;;;1999.90;999.90;;;;;;;22.79;100.00;93609.03;5027162;28;20194;-57
2023/07/29 09:19:58;;;;;;;1999.90;999.90;;;;;;;23.34;100.00;93613.13;5026561;28;20207;-58
2023/07/29 09:22:23;;;;;;;1999.90;999.90;;;;;;;24.34;100.00;93769.28;5026481;28;20299;-58
2023/07/29 09:24:49;;;;;;;1999.90;999.90;;;;;;;25.29;100.00;94066.25;5027104;28;20187;-57
2023/07/29 09:27:29;;;;;;;1999.90;999.90;;;;;;;26.44;100.00;94497.66;5027012;28;20206;-58
2023/07/29 09:29:56;;;;;;;1999.90;999.90;;;;;;;27.42;100.00;94699.56;5026892;28;20175;-58
2023/07/29 09:32:24;;;;;;;1999.90;999.90;;;;;;;27.89;100.00;94810.25;5026389;28;20195;-58
2023/07/29 09:34:49;;;;;;;1999.90;999.90;;;;;;;28.17;100.00;94841.53;5026719;28;20191;-58
2023/07/29 09:37:21;;;;;;;1999.90;999.90;;;;;;;28.46;100.00;94873.59;5026360;28;20194;-58
2023/07/29 09:39:47;;;;;;;1999.90;999.90;;;;;;;29.02;100.00;94912.91;5026430;28;20191;-59
2023/07/29 09:42:21;;;;;;;1999.90;999.90;;;;;;;29.38;100.00;94925.31;5026217;28;20241;-57
2023/07/29 09:44:48;;;;;;;1999.90;999.90;;;;;;;28.98;100.00;94930.03;5026218;28;20226;-57
2023/07/29 09:47:21;;;;;;;1999.90;999.90;;;;;;;29.40;100.00;94934.75;5025998;28;20199;-60
2023/07/29 09:49:47;;;;;;;1999.90;999.90;;;;;;;30.30;100.00;94955.91;5026173;28;20195;-59
2023/07/29 09:52:14;;;;;;;1999.90;999.90;;;;;;;30.20;100.00;94962.53;5025956;28;20190;-60
2023/07/29 09:54:42;;;;;;;1999.90;999.90;;;;;;;29.70;100.00;94971.13;5026529;28;20225;-59
2023/07/29 09:57:07;;;;;;;1999.90;999.90;;;;;;;29.38;100.00;94959.09;5026441;28;20197;-57
2023/07/29 09:59:36;;;;;;;1999.90;999.90;;;;;;;30.14;100.00;94964.66;5025880;28;20274;-60
2023/07/29 10:02:01;;;;;;;1999.90;999.90;;;;;;;30.25;100.00;94964.47;5026268;28;20203;-59
2023/07/29 10:04:28;;;;;;;1999.90;999.90;;;;;;;29.82;100.00;94961.19;5025812;28;20191;-58
2023/07/29 10:06:54;;;;;;;1999.90;999.90;;;;;;;29.97;100.00;94961.41;5025716;28;20199;-59
2023/07/29 10:09:20;;;;;;;1999.90;999.90;;;;;;;30.27;100.00;94961.88;5025757;28;20229;-58
2023/07/29 10:11:46;;;;;;;1999.90;999.90;;;;;;;30.39;100.00;94958.28;5025353;28;20209;-59
2023/07/29 10:14:11;;;;;;;1999.90;999.90;;;;;;;30.18;100.00;94963.06;5025936;28;20262;-58
2023/07/29 10:16:37;;;;;;;1999.90;999.90;;;;;;;30.53;100.00;94959.03;5025583;28;20214;-61
2023/07/29 10:19:04;;;;;;;1999.90;999.90;;;;;;;30.65;100.00;94951.81;5025683;28;20227;-60
2023/07/29 10:21:30;;;;;;;1999.90;999.90;;;;;;;30.10;100.00;94959.34;5025266;28;20207;-59
2023/07/29 10:24:01;;;;;;;1999.90;999.90;;;;;;;30.49;100.00;94961.41;5025715;28;20181;-58
2023/07/29 10:26:29;;;;;;;1999.90;999.90;;;;;;;30.26;100.00;94949.81;5025373;28;20195;-58
2023/07/29 10:29:00;;;;;;;1999.90;999.90;;;;;;;31.15;100.00;94943.00;5025450;28;20198;-59
2023/07/29 10:31:29;;;;;;;1999.90;999.90;;;;;;;31.66;100.00;94949.72;5025501;28;20194;-59
2023/07/29 10:33:54;;;;;;;1999.90;999.90;;;;;;;32.50;100.00;94932.78;5025323;28;20195;-59
2023/07/29 10:36:20;;;;;;;1999.90;999.90;;;;;;;32.40;100.00;94940.28;5025006;28;20202;-59
2023/07/29 10:38:45;;;;;;;1999.90;999.90;;;;;;;32.40;100.00;94934.63;5025198;28;20191;-59
2023/07/29 10:41:11;;;;;;;1999.90;999.90;;;;;;;32.45;100.00;94936.53;5025499;28;20215;-59
2023/07/29 10:43:40;;;;;;;1999.90;999.90;;;;;;;32.60;100.00;94925.31;5025048;28;20198;-59